Time;durP1;ratioP1;P1;durP2;ratioP2;P2;SDS_P1;SDS_P2;PMS_P1;PMS_P2;Temp;Humidity;BMP_temperature;BMP_pressure;BME280_temperature;BME280_humidity;BME280_pressure;Samples;Min_cycle;Max_cycle;Signal;HPM_P1;HPM_P2
2023/06/30 00:00:11;;;;;;;;;16.33;14.33;;;;;21.88;59.70;101084.22;5082275;27;45422;-70
2023/06/30 00:02:37;;;;;;;;;16.00;15.67;;;;;21.50;59.65;101021.78;5099472;27;45859;-72
2023/06/30 00:05:02;;;;;;;;;21.67;16.67;;;;;21.89;60.05;101085.03;5099091;27;45481;-71
2023/06/30 00:07:28;;;;;;;;;32.33;26.67;;;;;21.89;60.21;101080.47;5100527;27;45540;-71
2023/06/30 00:09:53;;;;;;;;;25.00;21.67;;;;;21.87;60.36;101079.84;5098977;27;45406;-72
2023/06/30 00:12:18;;;;;;;;;24.00;22.00;;;;;21.79;60.25;101069.22;5100270;27;50112;-70
2023/06/30 00:14:44;;;;;;;;;48.33;38.00;;;;;21.29;60.51;100990.38;5100460;27;45416;-73
2023/06/30 00:17:09;;;;;;;;;64.25;52.00;;;;;21.53;60.24;101026.78;5100398;27;45335;-71
2023/06/30 00:19:35;;;;;;;;;79.00;69.25;;;;;21.86;59.89;101070.06;5100439;27;45439;-71
2023/06/30 00:22:01;;;;;;;;;74.50;59.50;;;;;21.90;60.13;101070.47;5094338;27;46435;-71
2023/06/30 00:24:27;;;;;;;;;63.75;51.75;;;;;21.93;59.39;101075.44;5099920;27;45521;-70
2023/06/30 00:26:53;;;;;;;;;62.75;47.75;;;;;21.89;59.12;101066.94;5077503;27;45240;-72
2023/06/30 00:29:18;;;;;;;;;53.00;43.00;;;;;21.90;58.97;101070.47;5080078;27;45432;-71
2023/06/30 00:31:43;;;;;;;;;52.00;44.00;;;;;21.85;59.03;101068.41;5079649;28;49386;-71
2023/06/30 00:34:09;;;;;;;;;46.33;37.33;;;;;21.72;58.61;101057.56;5079826;28;45213;-70
2023/06/30 00:36:34;;;;;;;;;40.00;34.00;;;;;21.20;58.94;100984.28;5063673;27;45233;-71
2023/06/30 00:38:59;;;;;;;;;33.33;31.00;;;;;21.61;58.66;101063.59;5080614;27;45486;-71
2023/06/30 00:41:25;;;;;;;;;42.33;33.67;;;;;21.61;59.01;101079.84;5099881;27;46385;-70
2023/06/30 00:43:50;;;;;;;;;35.33;33.33;;;;;21.52;59.01;101068.41;5100068;27;45479;-71
2023/06/30 00:46:17;;;;;;;;;33.00;28.67;;;;;21.54;58.49;101067.16;5100179;27;45202;-70
2023/06/30 00:48:43;;;;;;;;;25.67;23.33;;;;;21.63;58.47;101086.72;5100144;27;45428;-71
2023/06/30 00:51:09;;;;;;;;;21.67;19.00;;;;;21.68;58.29;101091.50;5099317;27;45678;-71
2023/06/30 00:53:34;;;;;;;;;18.33;16.67;;;;;21.12;58.10;100998.03;5098603;27;45244;-69
2023/06/30 00:56:00;;;;;;;;;18.67;17.33;;;;;21.59;57.74;101084.63;5099692;27;45208;-69
2023/06/30 00:58:25;;;;;;;;;14.67;13.33;;;;;21.60;58.02;101081.72;5099960;27;45312;-70
2023/06/30 01:00:55;;;;;;;;;16.33;13.67;;;;;21.57;57.51;101082.13;5081001;27;47284;-73
2023/06/30 01:03:30;;;;;;;;;20.33;17.00;;;;;21.51;57.62;101083.81;5098087;27;46036;-69
2023/06/30 01:06:17;;;;;;;;;11.00;8.67;;;;;21.48;57.74;101096.91;5099614;27;45546;-68
2023/06/30 01:08:59;;;;;;;;;15.67;11.67;;;;;21.52;57.64;101093.59;5098323;27;45349;-73
2023/06/30 01:11:24;;;;;;;;;11.33;10.33;;;;;21.44;57.40;101082.97;5099386;27;45882;-71
2023/06/30 01:13:53;;;;;;;;;9.00;7.67;;;;;21.54;57.25;101096.06;5098443;27;45215;-70
2023/06/30 01:16:21;;;;;;;;;18.67;17.00;;;;;21.41;57.13;101077.94;5099428;27;45252;-71
2023/06/30 01:18:52;;;;;;;;;13.33;12.00;;;;;21.43;57.34;101081.31;5099626;27;45443;-70
2023/06/30 01:21:21;;;;;;;;;13.00;12.00;;;;;21.40;57.41;101097.09;5098804;27;47952;-71
2023/06/30 01:23:52;;;;;;;;;10.00;9.00;;;;;21.28;57.11;101090.66;5098140;27;45473;-71
2023/06/30 01:26:20;;;;;;;;;12.33;12.33;;;;;21.30;57.35;101102.09;5079891;27;45387;-70
2023/06/30 01:28:45;;;;;;;;;16.00;13.00;;;;;21.29;57.32;101112.06;5098082;27;45615;-70
2023/06/30 01:31:11;;;;;;;;;13.00;12.00;;;;;21.25;57.14;101103.53;5099054;27;45949;-71
2023/06/30 01:33:38;;;;;;;;;10.67;10.00;;;;;21.31;57.14;101101.88;5081017;27;45499;-71
2023/06/30 01:36:04;;;;;;;;;12.67;11.67;;;;;21.27;57.00;101097.09;5099386;27;45185;-71
2023/06/30 01:38:30;;;;;;;;;5.33;5.00;;;;;21.30;56.82;101102.91;5099436;27;45585;-70
2023/06/30 01:40:56;;;;;;;;;5.00;5.00;;;;;21.19;56.76;101095.38;5099149;27;46259;-72
2023/06/30 01:43:23;;;;;;;;;4.00;4.00;;;;;21.14;56.99;101109.50;5097189;27;46021;-72
2023/06/30 01:45:49;;;;;;;;;6.00;6.00;;;;;21.08;57.04;101104.09;5089024;27;45540;-69
2023/06/30 01:48:15;;;;;;;;;6.00;6.00;;;;;21.16;56.95;101125.53;5091911;27;45352;-69
2023/06/30 01:50:41;;;;;;;;;2.00;2.00;;;;;21.18;56.89;101120.75;5097260;27;45833;-71
2023/06/30 01:53:06;;;;;;;;;4.00;4.00;;;;;20.76;56.63;101051.59;5080013;27;46263;-70
2023/06/30 01:55:32;;;;;;;;;6.00;4.67;;;;;21.03;56.90;101095.78;5096314;27;45528;-72
2023/06/30 01:57:57;;;;;;;;;4.33;4.33;;;;;20.77;56.54;101051.38;5098512;27;45602;-81
2023/06/30 02:00:23;;;;;;;;;5.00;3.00;;;;;21.09;56.40;101105.75;5080028;27;47539;-69
2023/06/30 02:02:48;;;;;;;;;2.67;2.67;;;;;21.06;56.50;101107.00;5096868;27;45279;-71
2023/06/30 02:05:13;;;;;;;;;4.00;4.00;;;;;20.95;56.65;101094.06;5079868;27;45345;-70
2023/06/30 02:07:39;;;;;;;;;7.67;5.67;;;;;20.68;56.64;101049.91;5099057;27;45188;-71
2023/06/30 02:10:05;;;;;;;;;4.00;4.00;;;;;20.91;56.40;101088.25;5098622;27;46875;-71
2023/06/30 02:12:30;;;;;;;;;6.33;5.33;;;;;20.59;56.64;101046.53;5098550;27;45410;-70
2023/06/30 02:14:55;;;;;;;;;4.67;4.67;;;;;20.90;56.36;101094.69;5098074;27;53561;-72
2023/06/30 02:17:31;;;;;;;;;4.00;3.00;;;;;20.93;56.36;101105.09;5080307;27;45233;-70
2023/06/30 02:19:56;;;;;;;;;5.33;5.33;;;;;20.93;56.26;101101.53;5098332;27;45671;-72
2023/06/30 02:22:21;;;;;;;;;4.00;4.00;;;;;20.96;56.10;101112.78;5098163;27;45407;-71
2023/06/30 02:24:47;;;;;;;;;5.00;5.00;;;;;20.78;55.92;101090.06;5096786;27;45370;-71
2023/06/30 02:27:12;;;;;;;;;5.00;3.33;;;;;20.94;56.16;101120.25;5097161;27;56781;-76
2023/06/30 02:29:37;;;;;;;;;4.00;4.00;;;;;20.96;56.25;101129.00;5098251;27;46252;-72
2023/06/30 02:32:03;;;;;;;;;5.67;4.33;;;;;21.00;55.87;101123.19;5098030;27;45288;-72
2023/06/30 02:34:28;;;;;;;;;3.00;3.00;;;;;21.01;55.52;101124.84;5098961;27;45425;-73
2023/06/30 02:36:54;;;;;;;;;3.00;3.00;;;;;20.98;55.43;101119.84;5097839;27;45494;-71
2023/06/30 02:39:19;;;;;;;;;5.00;4.00;;;;;20.77;55.30;101091.09;5079419;27;47873;-71
2023/06/30 02:41:44;;;;;;;;;3.33;1.33;;;;;20.52;55.07;101048.41;5079496;27;46096;-73
2023/06/30 02:44:10;;;;;;;;;2.33;2.33;;;;;20.90;54.86;101127.13;5098107;27;45430;-71
2023/06/30 02:46:35;;;;;;;;;2.00;2.00;;;;;20.90;54.95;101129.00;5098450;27;45481;-69
2023/06/30 02:49:00;;;;;;;;;1.00;1.00;;;;;20.86;54.75;101125.84;5098009;27;45892;-70
2023/06/30 02:51:25;;;;;;;;;3.00;2.00;;;;;20.85;55.07;101120.66;5096055;27;58774;-70
2023/06/30 02:53:51;;;;;;;;;4.33;4.33;;;;;20.87;55.16;101113.19;5078837;27;45232;-71
2023/06/30 02:56:17;;;;;;;;;4.00;2.00;;;;;20.65;55.21;101107.06;5097821;27;45626;-72
2023/06/30 02:58:42;;;;;;;;;3.00;3.00;;;;;20.70;55.56;101112.69;5097639;27;46454;-69
2023/06/30 03:01:08;;;;;;;;;5.67;5.00;;;;;20.74;54.98;101116.66;5098173;27;45336;-70
2023/06/30 03:03:33;;;;;;;;;3.00;3.00;;;;;20.51;54.61;101075.63;5079839;27;45322;-69
2023/06/30 03:05:58;;;;;;;;;4.00;4.00;;;;;20.61;54.78;101098.50;5098081;27;45296;-70
2023/06/30 03:08:24;;;;;;;;;4.00;2.33;;;;;20.66;55.03;101124.94;5096313;27;47368;-71
2023/06/30 03:10:49;;;;;;;;;3.67;3.67;;;;;20.60;54.68;101109.50;5097701;27;45287;-70
2023/06/30 03:13:15;;;;;;;;;5.00;5.00;;;;;20.63;55.23;101114.53;5081501;27;45500;-69
2023/06/30 03:15:40;;;;;;;;;5.33;4.33;;;;;20.64;55.19;101111.63;5098769;27;45536;-70
2023/06/30 03:18:05;;;;;;;;;5.00;5.00;;;;;20.57;55.06;101099.13;5082725;27;49141;-70
2023/06/30 03:20:31;;;;;;;;;4.00;4.00;;;;;20.53;55.16;101098.69;5099875;27;45654;-69
2023/06/30 03:22:57;;;;;;;;;6.00;3.67;;;;;20.36;54.99;101084.66;5083063;27;45408;-71
2023/06/30 03:25:22;;;;;;;;;4.00;4.00;;;;;20.51;55.29;101114.25;5083104;27;45481;-71
2023/06/30 03:27:48;;;;;;;;;3.00;3.00;;;;;20.46;54.98;101121.31;5100537;27;45659;-71
2023/06/30 03:30:13;;;;;;;;;5.00;5.00;;;;;20.44;55.35;101113.41;5083188;27;45382;-71
2023/06/30 03:32:39;;;;;;;;;4.67;3.00;;;;;20.44;54.93;101102.59;5101512;27;45423;-71
2023/06/30 03:35:04;;;;;;;;;5.00;3.00;;;;;20.18;55.02;101060.03;5101380;27;45186;-70
2023/06/30 03:37:30;;;;;;;;;5.67;5.33;;;;;20.33;54.89;101085.06;5100634;27;47109;-72
2023/06/30 03:39:56;;;;;;;;;4.00;4.00;;;;;20.36;54.76;101095.44;5100351;27;45839;-71
2023/06/30 03:42:22;;;;;;;;;4.00;4.00;;;;;20.24;54.89;101097.06;5100456;27;45374;-71
2023/06/30 03:44:47;;;;;;;;;6.33;5.00;;;;;20.18;55.27;101097.84;5100786;27;45299;-70
2023/06/30 03:47:12;;;;;;;;;3.00;2.00;;;;;20.20;55.47;101101.16;5100576;27;46078;-70
2023/06/30 03:49:37;;;;;;;;;4.33;4.33;;;;;20.10;54.96;101095.31;5080729;27;50689;-70
2023/06/30 03:52:03;;;;;;;;;5.00;5.00;;;;;20.07;55.46;101105.66;5100347;27;58215;-70
2023/06/30 03:54:28;;;;;;;;;5.00;5.00;;;;;19.66;56.29;101069.47;5100486;27;45225;-72
2023/06/30 03:56:54;;;;;;;;;6.33;6.33;;;;;19.91;55.74;101113.03;5099700;27;64623;-70
2023/06/30 03:59:19;;;;;;;;;6.00;6.00;;;;;19.78;55.93;101103.97;5082510;27;45320;-72
2023/06/30 04:01:44;;;;;;;;;6.00;6.00;;;;;19.83;55.72;101115.88;5082366;27;46860;-71
2023/06/30 04:04:10;;;;;;;;;6.67;6.00;;;;;19.87;56.16;101110.91;5081769;27;45371;-70
2023/06/30 04:06:36;;;;;;;;;4.00;4.00;;;;;19.79;55.90;101109.19;5082063;27;47508;-72
2023/06/30 04:09:01;;;;;;;;;5.00;5.00;;;;;19.30;56.11;101036.34;5081740;27;46412;-71
2023/06/30 04:11:27;;;;;;;;;6.67;5.00;;;;;19.68;56.16;101107.03;5099725;27;45416;-70
2023/06/30 04:13:52;;;;;;;;;6.33;6.00;;;;;19.58;55.95;101096.56;5100875;27;45287;-70
2023/06/30 04:16:17;;;;;;;;;5.00;5.00;;;;;19.75;55.93;101113.31;5100121;27;45709;-71
2023/06/30 04:18:44;;;;;;;;;6.33;5.00;;;;;19.73;55.74;101105.41;5100498;27;45339;-70
2023/06/30 04:21:09;;;;;;;;;4.33;4.33;;;;;19.60;55.63;101089.09;5100937;27;45348;-72
2023/06/30 04:23:36;;;;;;;;;5.00;5.00;;;;;19.70;55.46;101105.81;5081676;27;45417;-69
2023/06/30 04:26:01;;;;;;;;;6.00;6.00;;;;;19.79;55.42;101111.03;5099891;27;45726;-69
2023/06/30 04:28:27;;;;;;;;;6.67;5.33;;;;;19.88;55.14;101117.97;5099720;27;46065;-70
2023/06/30 04:30:52;;;;;;;;;5.33;5.00;;;;;19.79;54.54;101094.84;5100378;27;45288;-69
2023/06/30 04:33:17;;;;;;;;;4.00;4.00;;;;;19.90;54.84;101099.72;5100303;27;45345;-70
2023/06/30 04:35:43;;;;;;;;;6.00;5.00;;;;;19.94;53.81;101114.50;5100178;27;46506;-70
2023/06/30 04:38:09;;;;;;;;;6.00;6.00;;;;;19.86;53.94;101103.84;5098163;27;45391;-72
2023/06/30 04:40:35;;;;;;;;;6.00;6.00;;;;;19.82;54.03;101091.75;5100351;27;45500;-69
2023/06/30 04:43:00;;;;;;;;;5.67;5.00;;;;;19.86;53.81;101099.28;5081475;27;45349;-70
2023/06/30 04:45:26;;;;;;;;;4.67;4.67;;;;;19.85;53.76;101091.41;5081433;27;47311;-71
2023/06/30 04:47:51;;;;;;;;;5.00;4.00;;;;;19.89;53.77;101095.38;5081532;27;45330;-71
2023/06/30 04:50:17;;;;;;;;;5.00;4.00;;;;;20.01;53.74;101097.31;5099212;27;45413;-69
2023/06/30 04:52:43;;;;;;;;;5.00;5.00;;;;;20.12;53.44;101111.28;5081527;27;45541;-71
2023/06/30 04:55:08;;;;;;;;;5.33;5.33;;;;;20.21;53.38;101102.81;5098359;27;46393;-69
2023/06/30 04:57:37;;;;;;;;;5.67;5.67;;;;;20.24;53.07;101099.75;5081061;27;45343;-72
2023/06/30 05:00:03;;;;;;;;;5.00;5.00;;;;;20.19;53.05;101086.00;5098938;27;45314;-71
2023/06/30 05:02:29;;;;;;;;;5.67;5.67;;;;;20.24;53.21;101088.97;5098887;27;45733;-72
2023/06/30 05:04:54;;;;;;;;;7.33;5.67;;;;;20.17;53.02;101085.38;5099271;27;46485;-70
2023/06/30 05:07:20;;;;;;;;;6.00;5.00;;;;;20.25;53.14;101095.19;5099411;27;45190;-70
2023/06/30 05:09:46;;;;;;;;;5.00;5.00;;;;;20.30;53.45;101093.56;5098873;27;45457;-73
2023/06/30 05:12:12;;;;;;;;;5.67;5.33;;;;;20.28;53.19;101097.50;5079110;27;45510;-71
2023/06/30 05:14:38;;;;;;;;;6.00;6.00;;;;;20.41;53.19;101110.25;5062338;28;48380;-70
2023/06/30 05:17:03;;;;;;;;;6.67;6.00;;;;;20.28;53.16;101084.00;5078583;28;48314;-72
2023/06/30 05:19:29;;;;;;;;;5.00;5.00;;;;;20.39;52.92;101093.38;5078219;27;45304;-71
2023/06/30 05:21:54;;;;;;;;;6.67;6.00;;;;;20.46;52.68;101110.50;5079003;28;45456;-70
2023/06/30 05:24:19;;;;;;;;;6.00;6.00;;;;;20.40;52.56;101095.03;5078045;27;47125;-69
2023/06/30 05:26:45;;;;;;;;;6.33;5.67;;;;;20.48;52.88;101105.72;5078385;28;45284;-71
2023/06/30 05:29:10;;;;;;;;;7.00;6.00;;;;;20.47;53.48;101102.19;5078650;27;45450;-70
2023/06/30 05:31:35;;;;;;;;;6.67;6.67;;;;;20.51;53.51;101103.47;5060301;28;45586;-70
2023/06/30 05:34:01;;;;;;;;;8.67;7.00;;;;;20.59;54.04;101121.34;5078353;28;45667;-72
2023/06/30 05:36:29;;;;;;;;;6.00;4.67;;;;;20.53;53.29;101095.16;5091499;27;45295;-71
2023/06/30 05:38:54;;;;;;;;;7.00;5.67;;;;;20.57;53.68;101102.66;5098660;27;45447;-71
2023/06/30 05:41:19;;;;;;;;;7.00;7.00;;;;;20.68;53.55;101112.06;5099085;27;45280;-70
2023/06/30 05:43:44;;;;;;;;;5.00;5.00;;;;;20.77;53.70;101113.53;5098807;27;45544;-68
2023/06/30 05:46:10;;;;;;;;;5.00;5.00;;;;;20.77;53.30;101115.41;5094764;27;45661;-72
2023/06/30 05:48:35;;;;;;;;;5.67;5.67;;;;;20.76;53.76;101125.38;5099091;27;45284;-71
2023/06/30 05:51:01;;;;;;;;;5.33;4.00;;;;;20.43;53.27;101043.38;5096654;27;45491;-74
2023/06/30 05:53:26;;;;;;;;;5.33;5.33;;;;;21.25;52.79;101110.81;5076135;27;48380;-71
2023/06/30 05:55:51;;;;;;;;;3.33;3.33;;;;;21.70;51.17;101070.47;5098441;27;45476;-70
2023/06/30 05:58:17;;;;;;;;;5.67;5.67;;;;;22.47;49.85;101121.22;5098782;27;45525;-71
2023/06/30 06:00:42;;;;;;;;;5.67;5.67;;;;;22.59;49.69;101115.94;5098825;27;45627;-71
2023/06/30 06:03:07;;;;;;;;;6.00;5.00;;;;;22.77;49.84;101127.75;5078071;27;47577;-71
2023/06/30 06:05:33;;;;;;;;;5.00;5.00;;;;;23.09;49.89;101114.31;5096741;27;45492;-72
2023/06/30 06:07:58;;;;;;;;;4.67;4.00;;;;;23.64;48.35;101118.13;5095276;27;54799;-68
2023/06/30 06:10:23;;;;;;;;;5.00;5.00;;;;;24.02;46.63;101103.56;5097471;27;45491;-71
2023/06/30 06:12:52;;;;;;;;;8.00;4.33;;;;;24.10;45.59;101059.00;5078897;27;47411;-71
2023/06/30 06:15:17;;;;;;;;;6.33;6.33;;;;;24.70;45.13;101117.09;5095942;27;45480;-71
2023/06/30 06:17:43;;;;;;;;;4.67;4.67;;;;;24.70;43.51;101081.75;5097957;27;45215;-69
2023/06/30 06:20:09;;;;;;;;;4.33;4.00;;;;;25.05;43.22;101120.03;5098061;27;45254;-70
2023/06/30 06:22:34;;;;;;;;;3.33;3.33;;;;;25.32;41.93;101123.19;5097742;27;46519;-70
2023/06/30 06:24:59;;;;;;;;;5.67;4.67;;;;;25.40;41.59;101127.44;5093152;27;45387;-70
2023/06/30 06:27:25;;;;;;;;;5.33;4.33;;;;;25.53;42.07;101131.88;5095402;27;50041;-79
2023/06/30 06:29:50;;;;;;;;;3.00;3.00;;;;;25.66;41.09;101139.84;5077670;27;46164;-71
2023/06/30 06:32:18;;;;;;;;;4.33;4.33;;;;;25.72;40.53;101137.03;5075088;27;47279;-70
2023/06/30 06:34:44;;;;;;;;;6.33;6.33;;;;;25.87;41.05;101149.38;5096237;27;45517;-71
2023/06/30 06:37:09;;;;;;;;;3.00;3.00;;;;;25.94;40.21;101128.28;5097757;27;45435;-69
2023/06/30 06:39:35;;;;;;;;;5.00;3.00;;;;;26.01;39.46;101139.91;5095153;27;45560;-69
2023/06/30 06:42:00;;;;;;;;;6.00;4.33;;;;;26.11;39.54;101140.16;5095687;27;63972;-70
2023/06/30 06:44:25;;;;;;;;;4.33;4.33;;;;;26.14;39.74;101138.84;5096971;27;47102;-69
2023/06/30 06:47:29;;;;;;;;;5.67;5.00;;;;;26.20;39.92;101141.44;5078941;27;45358;-69
2023/06/30 06:49:54;;;;;;;;;9.33;8.00;;;;;26.26;39.92;101137.78;5097131;27;45578;-69
2023/06/30 06:52:19;;;;;;;;;6.00;4.67;;;;;26.41;38.90;101156.38;5093861;27;46403;-68
2023/06/30 06:54:44;;;;;;;;;4.67;4.67;;;;;26.33;38.94;101126.75;5095941;27;46526;-69
2023/06/30 06:57:10;;;;;;;;;4.00;4.00;;;;;26.13;38.24;101104.47;5077141;27;45445;-71
2023/06/30 06:59:36;;;;;;;;;4.67;4.67;;;;;26.41;38.64;101128.28;5061120;28;45771;-69
2023/06/30 07:02:01;;;;;;;;;4.00;3.00;;;;;26.49;37.94;101136.13;5076095;28;71617;-71
2023/06/30 07:04:27;;;;;;;;;3.00;3.00;;;;;26.67;37.74;101144.16;5078639;27;45232;-70
2023/06/30 07:06:52;;;;;;;;;5.67;5.33;;;;;26.67;37.40;101144.97;5075395;27;45268;-69
2023/06/30 07:09:17;;;;;;;;;3.00;3.00;;;;;26.66;36.99;101146.06;5097459;27;45253;-69
2023/06/30 07:11:43;;;;;;;;;3.00;3.00;;;;;26.68;37.74;101149.38;5090549;27;45572;-70
2023/06/30 07:14:08;;;;;;;;;3.67;3.67;;;;;26.71;37.15;101152.69;5088172;27;45656;-70
2023/06/30 07:16:33;;;;;;;;;3.67;3.67;;;;;26.66;37.33;101137.03;5094144;27;58330;-68
2023/06/30 07:19:00;;;;;;;;;7.00;7.00;;;;;26.62;37.74;101136.66;5092851;27;45235;-69
2023/06/30 07:21:26;;;;;;;;;5.00;4.00;;;;;26.70;37.08;101149.13;5085139;27;46453;-68
2023/06/30 07:23:52;;;;;;;;;2.33;2.33;;;;;26.28;36.39;101085.75;5102203;27;45550;-71
2023/06/30 07:26:17;;;;;;;;;7.67;6.00;;;;;26.61;36.87;101150.56;5078431;27;45443;-68
2023/06/30 07:28:43;;;;;;;;;5.00;5.00;;;;;26.61;37.69;101156.00;5078712;27;45605;-70
2023/06/30 07:31:08;;;;;;;;;10.33;10.33;;;;;26.63;36.73;101157.44;5097597;27;46445;-71
2023/06/30 07:33:33;;;;;;;;;4.67;3.33;;;;;26.57;36.12;101154.84;5117457;27;45310;-70
2023/06/30 07:35:59;;;;;;;;;5.67;5.67;;;;;26.59;36.65;101163.59;5117275;27;45491;-71
2023/06/30 07:38:24;;;;;;;;;5.00;5.00;;;;;26.57;36.67;101149.38;5117193;27;45510;-68
2023/06/30 07:40:49;;;;;;;;;2.67;2.67;;;;;26.61;35.18;101162.28;5091359;27;46388;-69
2023/06/30 07:43:14;;;;;;;;;6.33;5.33;;;;;26.60;35.92;101155.19;5096210;27;57808;-70
2023/06/30 07:45:40;;;;;;;;;4.00;3.00;;;;;26.72;35.62;101157.06;5096374;27;56401;-69
2023/06/30 07:48:05;;;;;;;;;4.67;4.67;;;;;26.59;36.05;101144.50;5096391;27;50905;-73
2023/06/30 07:50:30;;;;;;;;;3.00;3.00;;;;;26.63;35.54;101148.41;5077682;27;59264;-70
2023/06/30 07:52:56;;;;;;;;;8.33;8.33;;;;;26.70;35.49;101165.50;5077986;27;46027;-68
2023/06/30 07:55:22;;;;;;;;;6.00;4.67;;;;;26.36;35.13;101116.22;5096565;27;45329;-68
2023/06/30 07:57:48;;;;;;;;;4.00;3.00;;;;;26.67;34.88;101161.34;5096504;27;45471;-70
2023/06/30 08:00:15;;;;;;;;;5.00;3.67;;;;;26.73;34.41;101164.19;5097827;27;45533;-70
2023/06/30 08:02:41;;;;;;;;;5.33;5.33;;;;;26.73;34.30;101167.72;5099588;27;45515;-70
2023/06/30 08:05:07;;;;;;;;;3.33;3.33;;;;;26.60;33.78;101144.25;5098751;27;45373;-70
2023/06/30 08:07:33;;;;;;;;;7.33;6.00;;;;;26.70;34.24;101159.22;5081782;27;45598;-72
2023/06/30 08:09:59;;;;;;;;;4.33;4.33;;;;;26.70;34.36;101165.50;5099470;27;46196;-69
2023/06/30 08:12:24;;;;;;;;;5.33;3.67;;;;;26.67;34.64;101163.25;5099673;27;45675;-70
2023/06/30 08:14:49;;;;;;;;;4.00;4.00;;;;;26.63;34.14;101149.28;5099873;27;45461;-69
2023/06/30 08:17:15;;;;;;;;;5.00;4.00;;;;;26.73;33.63;101158.72;5081910;27;45497;-71
2023/06/30 08:19:42;;;;;;;;;3.00;3.00;;;;;26.68;32.48;101151.25;5099026;27;45549;-69
2023/06/30 08:22:09;;;;;;;;;3.33;3.33;;;;;26.64;33.23;101161.00;5080972;27;46142;-69
2023/06/30 08:24:35;;;;;;;;;4.00;4.00;;;;;26.69;33.76;101150.19;5099489;27;45497;-68
2023/06/30 08:27:00;;;;;;;;;4.00;4.00;;;;;26.75;33.68;101156.56;5081565;27;45403;-71
2023/06/30 08:29:25;;;;;;;;;4.33;4.00;;;;;26.78;33.51;101158.81;5099593;27;46904;-71
2023/06/30 08:31:52;;;;;;;;;5.00;4.67;;;;;26.70;33.26;101149.13;5100946;27;45391;-69
2023/06/30 08:34:17;;;;;;;;;2.67;2.67;;;;;26.72;32.00;101146.16;5100102;27;45581;-68
2023/06/30 08:36:43;;;;;;;;;5.00;5.00;;;;;26.73;31.55;101140.44;5098775;27;45509;-69
2023/06/30 08:39:08;;;;;;;;;4.00;3.00;;;;;26.60;30.81;101127.91;5080768;27;47884;-70
2023/06/30 08:41:37;;;;;;;;;3.00;3.00;;;;;26.76;31.26;101150.06;5080605;27;45430;-71
2023/06/30 08:44:03;;;;;;;;;3.33;3.33;;;;;26.55;30.10;101107.88;5098203;27;45390;-69
2023/06/30 08:46:29;;;;;;;;;3.33;3.33;;;;;26.74;30.63;101150.28;5080005;27;45528;-71
2023/06/30 08:48:55;;;;;;;;;2.67;2.67;;;;;26.72;29.96;101127.88;5080949;27;47952;-70
2023/06/30 08:51:21;;;;;;;;;3.00;3.00;;;;;26.88;30.89;101146.22;5099770;27;45910;-70
2023/06/30 08:53:48;;;;;;;;;4.00;4.00;;;;;26.92;30.47;101146.56;5099133;27;45521;-73
2023/06/30 08:56:17;;;;;;;;;4.00;4.00;;;;;27.04;31.30;101150.13;5097593;27;45616;-71
2023/06/30 08:58:43;;;;;;;;;3.00;3.00;;;;;27.07;29.67;101132.44;5097283;27;46969;-72
2023/06/30 09:01:10;;;;;;;;;4.00;4.00;;;;;27.12;29.20;101132.53;5096740;27;45500;-70
2023/06/30 09:03:36;;;;;;;;;5.33;3.00;;;;;27.18;29.77;101135.09;5098896;27;45362;-70
2023/06/30 09:06:01;;;;;;;;;12.00;10.00;;;;;27.20;29.76;101121.19;5075166;27;45629;-72
2023/06/30 09:08:47;;;;;;;;;4.00;3.00;;;;;27.32;29.25;101130.16;5115882;27;45575;-70
2023/06/30 09:11:15;;;;;;;;;4.00;3.00;;;;;27.33;28.22;101136.47;5071893;27;45729;-70
2023/06/30 09:13:42;;;;;;;;;2.00;2.00;;;;;27.27;28.37;101127.34;5093468;27;45934;-71
2023/06/30 09:16:10;;;;;;;;;8.00;8.00;;;;;27.29;29.40;101119.75;5099407;27;45503;-71
2023/06/30 09:18:35;;;;;;;;;4.67;4.00;;;;;27.35;29.61;101129.69;5097359;27;45876;-71
2023/06/30 09:21:05;;;;;;;;;6.33;5.33;;;;;27.32;29.27;101111.06;5090289;27;45362;-68
2023/06/30 09:23:31;;;;;;;;;3.00;3.00;;;;;27.35;28.63;101121.47;5105490;27;45455;-69
2023/06/30 09:25:56;;;;;;;;;3.00;3.00;;;;;27.29;28.61;101122.47;5093905;27;45364;-69
2023/06/30 09:28:22;;;;;;;;;3.33;3.00;;;;;27.36;28.79;101125.03;5079872;27;55443;-70
2023/06/30 09:30:47;;;;;;;;;4.00;4.00;;;;;27.37;29.04;101122.06;5098763;27;45456;-69
2023/06/30 09:33:14;;;;;;;;;3.00;2.00;;;;;27.32;28.71;101108.31;5097688;27;45647;-70
2023/06/30 09:35:42;;;;;;;;;9.00;4.00;;;;;27.36;28.61;101123.13;5097693;27;45298;-70
2023/06/30 09:38:17;;;;;;;;;2.00;2.00;;;;;27.36;28.94;101120.41;5101257;27;45601;-71
2023/06/30 09:40:47;;;;;;;;;3.00;1.33;;;;;27.29;28.26;101125.22;5099696;27;45376;-70
2023/06/30 09:43:19;;;;;;;;;2.33;2.00;;;;;27.25;28.87;101118.59;5096296;27;45403;-70
2023/06/30 09:45:55;;;;;;;;;4.00;4.00;;;;;27.19;29.05;101116.81;5096748;27;45574;-71
2023/06/30 09:48:21;;;;;;;;;3.00;3.00;;;;;27.20;29.51;101121.19;5098359;27;46900;-69
2023/06/30 09:50:46;;;;;;;;;3.67;3.67;;;;;27.21;29.85;101123.69;5098664;27;45529;-69
2023/06/30 09:53:19;;;;;;;;;5.33;2.33;;;;;27.15;29.72;101102.00;5095841;27;45812;-71
2023/06/30 09:55:52;;;;;;;;;2.00;2.00;;;;;27.21;29.10;101101.84;5098398;27;45288;-71
2023/06/30 09:58:19;;;;;;;;;2.33;2.33;;;;;27.22;29.25;101098.03;5100143;27;46498;-70
2023/06/30 10:00:45;;;;;;;;;3.00;3.00;;;;;27.34;29.80;101108.09;5078135;27;45600;-75
2023/06/30 10:03:16;;;;;;;;;2.00;2.00;;;;;27.38;29.04;101101.88;5110081;27;45273;-70
2023/06/30 10:05:42;;;;;;;;;4.33;4.33;;;;;27.05;29.23;101041.78;5100113;27;45280;-70
2023/06/30 10:08:08;;;;;;;;;4.00;4.00;;;;;27.29;29.90;101089.72;5117851;27;46346;-72
2023/06/30 10:10:33;;;;;;;;;3.00;3.00;;;;;27.31;30.06;101090.28;5118459;27;45454;-69
2023/06/30 10:12:58;;;;;;;;;3.33;3.33;;;;;27.39;29.34;101098.06;5099831;27;45404;-70
2023/06/30 10:15:25;;;;;;;;;3.00;3.00;;;;;27.35;29.80;101099.63;5119088;27;45476;-70
2023/06/30 10:17:53;;;;;;;;;5.00;4.00;;;;;27.10;29.75;101050.88;5118149;27;46581;-70
2023/06/30 10:20:18;;;;;;;;;3.00;3.00;;;;;27.26;29.39;101076.56;5098263;27;45428;-71
2023/06/30 10:22:44;;;;;;;;;3.00;3.00;;;;;27.21;29.91;101066.34;5095583;27;45284;-69
2023/06/30 10:25:14;;;;;;;;;3.00;3.00;;;;;27.39;29.74;101086.31;5079385;27;45289;-70
2023/06/30 10:27:40;;;;;;;;;7.00;7.00;;;;;27.52;29.75;101094.19;5095789;27;46170;-71
2023/06/30 10:30:07;;;;;;;;;4.00;4.00;;;;;27.42;29.93;101077.63;5076545;27;46119;-68
2023/06/30 10:32:33;;;;;;;;;6.00;5.00;;;;;27.49;29.68;101086.50;5097524;27;45485;-69
2023/06/30 10:34:59;;;;;;;;;7.00;7.00;;;;;27.43;30.10;101071.09;5097938;27;45520;-69
2023/06/30 10:37:26;;;;;;;;;6.33;5.00;;;;;27.48;29.84;101082.94;5094963;27;45374;-70
2023/06/30 10:39:51;;;;;;;;;5.67;4.33;;;;;27.48;30.21;101079.38;5070955;28;45652;-70
2023/06/30 10:42:20;;;;;;;;;3.00;3.00;;;;;27.41;29.40;101056.84;5080002;27;45262;-70
2023/06/30 10:44:47;;;;;;;;;3.33;3.33;;;;;27.48;30.39;101084.84;5097104;27;45359;-70
2023/06/30 10:47:14;;;;;;;;;5.67;5.67;;;;;27.51;30.25;101079.72;5097024;27;46471;-70
2023/06/30 10:49:41;;;;;;;;;3.67;3.67;;;;;27.53;30.10;101088.47;5095281;27;45334;-71
2023/06/30 10:52:27;;;;;;;;;5.00;3.67;;;;;27.54;30.38;101084.69;5078298;27;45486;-70
2023/06/30 10:54:53;;;;;;;;;4.00;3.00;;;;;27.58;30.49;101085.81;5091010;27;45399;-70
2023/06/30 10:57:26;;;;;;;;;5.00;4.00;;;;;27.51;30.77;101082.44;5072764;27;47363;-70
2023/06/30 11:00:06;;;;;;;;;5.00;3.67;;;;;27.47;30.34;101078.56;5075506;27;45501;-69
2023/06/30 11:02:32;;;;;;;;;5.33;4.00;;;;;27.52;30.16;101075.91;5097255;27;45399;-71
2023/06/30 11:05:21;;;;;;;;;4.00;2.33;;;;;27.49;30.68;101090.06;5089266;27;45549;-70
2023/06/30 11:07:52;;;;;;;;;3.33;3.33;;;;;27.47;30.32;101085.94;5075768;27;46946;-69
2023/06/30 11:10:47;;;;;;;;;8.33;7.00;;;;;27.33;30.31;101079.94;5097076;27;45384;-69
2023/06/30 11:13:13;;;;;;;;;7.33;7.33;;;;;27.29;30.74;101076.06;5096234;27;45228;-69
2023/06/30 11:15:41;;;;;;;;;9.33;9.33;;;;;27.32;30.61;101091.94;5096619;27;45262;-70
2023/06/30 11:18:19;;;;;;;;;6.33;5.33;;;;;27.33;30.75;101088.16;5105074;27;45911;-69